チューク諸島 の空港の天気 - METARとTAF

チューク国際空港 ( PTKK / TKK ) - ミクロネシア連邦 チューク諸島
飛行場実況気象(Metar)
観測時間07/29 12:51 +10 (07/29 02:51 UTC)
風向・風速不定 2m/s
視程10km以上
天気現象
少しの雲 雲底高度 430m
全天の4割程度の雲 雲底高度 8840m
気温31.7℃
湿度74%
気圧1009.3hPa
METARPTKK 290251Z VRB03KT 15SM FEW014 SCT290 32/27 A2980 RMK SLP093 8/101 T03170265 57014
過去の天気等 Google飛行場航空写真 Wunderground天気予報

過去48時間のMETAR

飛行場予報(TAF)
発表時間: 7/29 09:36 +10 (7/28 23:36 UTC)
予報対象時間: 29日10時 +10 ~ 30日10時 +10
風向・風速西南西 4m/s
視程10km以上
天気現象周辺でしゅう雨
全天の4割程度の雲 雲底高度 490m
PTKK 282336Z 2900/2924 24007KT P6SM VCSH SCT016